DTTZ/TOE METAR and TAF weather

Enter ICAO airport designator
Station Type Date Time Source
DTTZ METAR 2019/04/19 22:00 UTC NOAA

DTTZ 192200Z 08027KT 4000 SA NSC 20/11 Q1012 NOSIG


Station Type Date Time Source
DTTZ Decoded METAR 2019/04/19 22:00 UTC NOAA

Tozeur, Tunisia (DTTZ) 33-55N 008-06E 93M
Apr 19, 2019 - 06:00 PM EDT / 2019.04.19 2200 UTC
Wind: from the E (080 degrees) at 31 MPH (27 KT):0
Visibility: 2 mile(s):0
Weather: sand
Temperature: 68 F (20 C)
Dew Point: 51 F (11 C)
Relative Humidity: 56%
Pressure (altimeter): 29.88 in. Hg (1012 hPa)
ob: DTTZ 192200Z 08027KT 4000 SA NSC 20/11 Q1012 NOSIG
cycle: 22

Station Type Date Time Source
DTTZ TAF 2019/04/19 18:03 UTC NOAA

TAF DTTZ 191700Z 1918/2018 09033G43KT 1500 SA NSC PROB40
TEMPO 1918/2012 08030G50KT 0500 SS

Example: see airport list